createdAt,value
2022-12-07T06:37:26.585Z,48.03
2022-12-07T06:40:09.751Z,47.94
2022-12-07T06:42:48.775Z,48.38
2022-12-07T08:23:17.293Z,48.83
2022-12-07T08:25:47.826Z,49.16
2022-12-07T08:31:33.215Z,49.14
2022-12-07T09:44:09.353Z,48.80
2022-12-07T10:00:46.930Z,48.47
2022-12-07T10:10:07.284Z,47.62
2022-12-07T10:16:08.421Z,48.25
2022-12-07T11:01:42.986Z,46.95
2022-12-07T11:05:32.649Z,46.90
2022-12-07T11:08:30.868Z,46.65
2022-12-07T11:11:23.342Z,47.01
2022-12-07T11:23:48.823Z,46.77
2022-12-07T11:26:33.565Z,46.51
2022-12-07T11:30:05.001Z,46.52
2022-12-07T11:33:08.982Z,46.19
2022-12-07T11:35:54.432Z,46.07
2022-12-07T11:38:33.538Z,46.22
2022-12-07T11:44:27.482Z,46.13
2022-12-07T11:47:17.266Z,46.04
2022-12-07T11:49:51.249Z,46.07
2022-12-07T11:52:30.918Z,46.40
2022-12-07T11:55:05.744Z,46.20
2022-12-07T12:01:14.017Z,45.76
2022-12-07T12:04:07.853Z,45.15
2022-12-07T12:06:37.501Z,45.46
2022-12-07T12:15:46.227Z,44.46
2022-12-07T12:18:40.002Z,44.04
2022-12-07T12:21:12.814Z,44.25
2022-12-07T12:23:46.724Z,43.72
2022-12-07T12:26:22.567Z,44.02
2022-12-07T12:29:00.435Z,43.88
2022-12-07T12:31:45.021Z,43.68
2022-12-07T12:34:33.025Z,43.46
2022-12-07T12:37:02.065Z,43.28
2022-12-07T12:39:30.767Z,43.25
2022-12-07T12:42:08.908Z,43.09
2022-12-07T12:48:32.916Z,42.87
2022-12-07T12:51:34.579Z,43.02
2022-12-07T12:54:07.112Z,43.00
2022-12-07T12:56:44.712Z,43.04
2022-12-07T12:59:29.463Z,43.08
2022-12-07T13:02:13.903Z,42.72
2022-12-07T13:04:57.544Z,42.97
2022-12-07T13:08:34.953Z,42.84
2022-12-07T13:11:23.355Z,43.12
2022-12-07T13:13:52.087Z,42.85
2022-12-07T13:16:45.622Z,42.34
2022-12-07T13:20:05.042Z,41.95
2022-12-07T13:22:57.536Z,41.90
2022-12-07T13:25:53.795Z,40.82
2022-12-07T13:28:28.326Z,40.97
2022-12-07T13:31:11.051Z,40.66
2022-12-07T13:33:40.223Z,40.75
2022-12-07T13:36:21.658Z,40.35
2022-12-07T13:38:57.695Z,40.87
2022-12-07T13:41:27.140Z,41.25
2022-12-07T13:44:12.259Z,41.36
2022-12-07T13:46:51.035Z,41.40
2022-12-07T13:49:50.339Z,41.56
2022-12-07T13:52:28.519Z,41.58
2022-12-07T13:55:02.499Z,41.40
2022-12-07T13:57:35.418Z,41.56
2022-12-07T14:00:06.229Z,41.64
2022-12-07T14:02:44.018Z,41.73
2022-12-07T14:05:19.487Z,42.16
2022-12-07T14:07:56.873Z,41.88
2022-12-07T14:10:30.391Z,42.14
2022-12-07T14:12:59.844Z,42.48
2022-12-07T14:18:42.706Z,42.92
2022-12-07T14:21:29.532Z,42.66
2022-12-07T14:24:37.236Z,42.78
2022-12-07T14:27:21.162Z,42.81
2022-12-07T14:29:49.821Z,42.90
2022-12-07T14:32:29.504Z,42.93
2022-12-07T14:35:13.007Z,43.12
2022-12-07T14:37:45.172Z,43.42
2022-12-07T14:40:17.228Z,43.57
2022-12-07T14:43:18.168Z,43.37
2022-12-07T14:45:47.036Z,43.63
2022-12-07T14:54:00.028Z,43.65
2022-12-07T14:56:30.172Z,43.50
2022-12-07T14:59:01.025Z,43.73
2022-12-07T15:01:31.636Z,43.66
2022-12-07T15:04:03.825Z,43.64
2022-12-07T15:06:36.954Z,43.73
2022-12-07T15:09:07.693Z,43.74
2022-12-07T15:11:44.598Z,43.52
2022-12-07T15:14:16.426Z,44.09
2022-12-07T15:17:08.344Z,43.88
2022-12-07T15:19:42.575Z,43.94
2022-12-07T15:22:15.410Z,44.01
2022-12-07T15:24:45.937Z,43.98
2022-12-07T15:30:22.953Z,44.34
2022-12-07T15:33:13.203Z,44.35
2022-12-07T15:35:43.910Z,44.54
2022-12-07T15:41:21.844Z,44.48
2022-12-07T15:50:51.192Z,44.39
2022-12-07T15:53:21.841Z,44.46
2022-12-07T16:04:47.525Z,44.72
2022-12-07T16:07:19.705Z,45.09
2022-12-07T16:09:59.048Z,44.07
2022-12-07T16:12:31.805Z,44.56
2022-12-07T16:15:01.555Z,44.41
2022-12-07T16:17:30.842Z,44.57
2022-12-07T16:22:56.368Z,44.51
2022-12-07T16:25:30.491Z,44.62
2022-12-07T16:31:31.286Z,44.64
2022-12-07T16:34:10.281Z,44.56
2022-12-07T16:37:04.592Z,45.10
2022-12-07T16:40:29.719Z,44.78
2022-12-07T16:43:33.721Z,44.83
2022-12-07T16:54:43.070Z,44.97
2022-12-07T17:08:36.354Z,45.16
2022-12-07T17:11:28.543Z,45.24
2022-12-07T17:20:30.206Z,45.01
2022-12-07T17:23:00.922Z,45.22
2022-12-07T17:29:06.654Z,45.62
2022-12-07T17:32:00.323Z,45.22
2022-12-07T17:34:39.495Z,45.48
2022-12-07T17:38:40.690Z,45.40
2022-12-07T17:47:21.653Z,45.37
2022-12-07T22:08:01.327Z,44.20
